Terminal Aerodrome Forecast
Issued by NWS Billings, MT

Home | Current Version | Previous Version | Text Only | Print | Product List | Glossary On
Versions: 1 2 3 4 5 6 7 8 9 10 11 12 13 14 15 16
000
FTUS45 KBYZ 231720
TAFMLS
TAF
KMLS 231720Z 2318/2418 24014G22KT P6SM SCT100 BKN250
     FM240200 24008KT P6SM FEW100 SCT250
     FM241600 30012KT P6SM BKN080 OVC250=

USA.gov is the U.S. government's official web portal to all federal, state and local government web resources and services.